sensor_id;sensor_type;location;lat;lon;timestamp;P1;durP1;ratioP1;P2;durP2;ratioP2
76892;SDS011;65854;51.466;7.260;2023-02-26T00:02:02;7.70;;;1.20;;
76892;SDS011;65854;51.466;7.260;2023-02-26T00:04:28;5.50;;;1.10;;
76892;SDS011;65854;51.466;7.260;2023-02-26T00:06:54;6.53;;;1.20;;
76892;SDS011;65854;51.466;7.260;2023-02-26T00:09:20;5.78;;;1.00;;
76892;SDS011;65854;51.466;7.260;2023-02-26T00:11:46;5.87;;;1.00;;
76892;SDS011;65854;51.466;7.260;2023-02-26T00:14:13;4.90;;;0.90;;
76892;SDS011;65854;51.466;7.260;2023-02-26T00:16:40;5.38;;;1.00;;
76892;SDS011;65854;51.466;7.260;2023-02-26T00:19:07;7.10;;;1.02;;
76892;SDS011;65854;51.466;7.260;2023-02-26T00:21:35;4.68;;;0.98;;
76892;SDS011;65854;51.466;7.260;2023-02-26T00:24:02;6.70;;;1.10;;
76892;SDS011;65854;51.466;7.260;2023-02-26T00:26:30;3.90;;;0.80;;
76892;SDS011;65854;51.466;7.260;2023-02-26T00:28:57;6.75;;;1.10;;
76892;SDS011;65854;51.466;7.260;2023-02-26T00:31:23;6.85;;;1.27;;
76892;SDS011;65854;51.466;7.260;2023-02-26T00:33:50;4.25;;;0.93;;
76892;SDS011;65854;51.466;7.260;2023-02-26T00:41:39;5.35;;;0.90;;
76892;SDS011;65854;51.466;7.260;2023-02-26T00:44:05;5.22;;;1.00;;
76892;SDS011;65854;51.466;7.260;2023-02-26T00:51:34;6.80;;;1.17;;
76892;SDS011;65854;51.466;7.260;2023-02-26T00:54:17;4.40;;;0.90;;
76892;SDS011;65854;51.466;7.260;2023-02-26T00:56:45;4.63;;;0.70;;
76892;SDS011;65854;51.466;7.260;2023-02-26T00:59:12;4.55;;;1.00;;
76892;SDS011;65854;51.466;7.260;2023-02-26T01:01:38;5.40;;;0.85;;
76892;SDS011;65854;51.466;7.260;2023-02-26T01:04:03;4.73;;;0.77;;
76892;SDS011;65854;51.466;7.260;2023-02-26T01:06:31;5.68;;;1.00;;
76892;SDS011;65854;51.466;7.260;2023-02-26T01:11:42;3.17;;;0.60;;
76892;SDS011;65854;51.466;7.260;2023-02-26T01:14:08;4.93;;;0.95;;
76892;SDS011;65854;51.466;7.260;2023-02-26T01:19:49;3.42;;;0.90;;
76892;SDS011;65854;51.466;7.260;2023-02-26T01:22:20;2.23;;;0.57;;
76892;SDS011;65854;51.466;7.260;2023-02-26T01:24:58;5.50;;;0.95;;
76892;SDS011;65854;51.466;7.260;2023-02-26T01:27:31;6.47;;;1.35;;
76892;SDS011;65854;51.466;7.260;2023-02-26T01:29:57;6.45;;;0.90;;
76892;SDS011;65854;51.466;7.260;2023-02-26T01:35:01;4.55;;;1.00;;
76892;SDS011;65854;51.466;7.260;2023-02-26T01:37:35;5.50;;;0.80;;
76892;SDS011;65854;51.466;7.260;2023-02-26T01:43:21;6.65;;;0.95;;
76892;SDS011;65854;51.466;7.260;2023-02-26T01:46:05;3.57;;;0.80;;
76892;SDS011;65854;51.466;7.260;2023-02-26T01:48:50;5.35;;;0.88;;
76892;SDS011;65854;51.466;7.260;2023-02-26T01:51:36;7.18;;;0.90;;
76892;SDS011;65854;51.466;7.260;2023-02-26T01:54:06;5.53;;;0.85;;
76892;SDS011;65854;51.466;7.260;2023-02-26T01:56:31;7.77;;;1.00;;
76892;SDS011;65854;51.466;7.260;2023-02-26T01:58:57;5.28;;;0.93;;
76892;SDS011;65854;51.466;7.260;2023-02-26T02:01:23;6.23;;;0.80;;
76892;SDS011;65854;51.466;7.260;2023-02-26T02:03:49;5.75;;;0.80;;
76892;SDS011;65854;51.466;7.260;2023-02-26T02:06:21;3.50;;;0.70;;
76892;SDS011;65854;51.466;7.260;2023-02-26T02:08:50;4.03;;;0.75;;
76892;SDS011;65854;51.466;7.260;2023-02-26T02:11:16;4.47;;;0.60;;
76892;SDS011;65854;51.466;7.260;2023-02-26T02:13:47;4.03;;;0.63;;
76892;SDS011;65854;51.466;7.260;2023-02-26T02:30:02;4.00;;;0.70;;
76892;SDS011;65854;51.466;7.260;2023-02-26T02:34:59;3.53;;;0.60;;
76892;SDS011;65854;51.466;7.260;2023-02-26T02:37:36;3.30;;;0.75;;
76892;SDS011;65854;51.466;7.260;2023-02-26T02:40:26;4.35;;;0.80;;
76892;SDS011;65854;51.466;7.260;2023-02-26T02:42:59;5.60;;;0.75;;
76892;SDS011;65854;51.466;7.260;2023-02-26T02:45:48;5.18;;;0.65;;
76892;SDS011;65854;51.466;7.260;2023-02-26T02:48:43;3.27;;;0.60;;
76892;SDS011;65854;51.466;7.260;2023-02-26T02:51:14;7.07;;;0.80;;
76892;SDS011;65854;51.466;7.260;2023-02-26T02:53:51;3.65;;;0.77;;
76892;SDS011;65854;51.466;7.260;2023-02-26T02:59:32;4.13;;;0.90;;
76892;SDS011;65854;51.466;7.260;2023-02-26T03:02:16;4.83;;;0.80;;
76892;SDS011;65854;51.466;7.260;2023-02-26T03:04:57;4.82;;;0.60;;
76892;SDS011;65854;51.466;7.260;2023-02-26T03:07:23;4.38;;;0.68;;
76892;SDS011;65854;51.466;7.260;2023-02-26T03:09:49;4.50;;;0.82;;
76892;SDS011;65854;51.466;7.260;2023-02-26T03:12:15;3.97;;;0.87;;
76892;SDS011;65854;51.466;7.260;2023-02-26T03:14:40;4.43;;;0.75;;
76892;SDS011;65854;51.466;7.260;2023-02-26T03:25:37;4.63;;;1.02;;
76892;SDS011;65854;51.466;7.260;2023-02-26T03:28:24;5.00;;;0.90;;
76892;SDS011;65854;51.466;7.260;2023-02-26T03:31:03;3.47;;;0.70;;
76892;SDS011;65854;51.466;7.260;2023-02-26T03:36:27;4.18;;;0.80;;
76892;SDS011;65854;51.466;7.260;2023-02-26T03:39:08;4.70;;;0.70;;
76892;SDS011;65854;51.466;7.260;2023-02-26T03:41:52;3.13;;;0.65;;
76892;SDS011;65854;51.466;7.260;2023-02-26T03:44:28;5.77;;;0.90;;
76892;SDS011;65854;51.466;7.260;2023-02-26T03:46:59;4.22;;;0.95;;
76892;SDS011;65854;51.466;7.260;2023-02-26T03:49:31;6.38;;;1.30;;
76892;SDS011;65854;51.466;7.260;2023-02-26T03:52:02;6.85;;;0.77;;
76892;SDS011;65854;51.466;7.260;2023-02-26T03:54:49;7.05;;;0.90;;
76892;SDS011;65854;51.466;7.260;2023-02-26T03:57:21;2.50;;;0.60;;
76892;SDS011;65854;51.466;7.260;2023-02-26T03:59:47;3.90;;;0.80;;
76892;SDS011;65854;51.466;7.260;2023-02-26T04:02:17;5.40;;;0.90;;
76892;SDS011;65854;51.466;7.260;2023-02-26T04:04:56;6.72;;;0.80;;
76892;SDS011;65854;51.466;7.260;2023-02-26T04:07:25;5.07;;;0.90;;
76892;SDS011;65854;51.466;7.260;2023-02-26T04:09:51;3.72;;;0.80;;
76892;SDS011;65854;51.466;7.260;2023-02-26T04:12:24;6.27;;;0.60;;
76892;SDS011;65854;51.466;7.260;2023-02-26T04:14:51;7.07;;;0.90;;
76892;SDS011;65854;51.466;7.260;2023-02-26T04:17:17;5.40;;;0.80;;
76892;SDS011;65854;51.466;7.260;2023-02-26T04:19:43;5.10;;;0.90;;
76892;SDS011;65854;51.466;7.260;2023-02-26T04:22:08;6.77;;;0.80;;
76892;SDS011;65854;51.466;7.260;2023-02-26T04:24:34;4.65;;;1.00;;
76892;SDS011;65854;51.466;7.260;2023-02-26T04:27:00;6.60;;;0.80;;
76892;SDS011;65854;51.466;7.260;2023-02-26T04:29:26;3.67;;;0.87;;
76892;SDS011;65854;51.466;7.260;2023-02-26T04:31:52;4.33;;;1.00;;
76892;SDS011;65854;51.466;7.260;2023-02-26T04:34:17;5.55;;;0.70;;
76892;SDS011;65854;51.466;7.260;2023-02-26T04:36:43;6.43;;;0.82;;
76892;SDS011;65854;51.466;7.260;2023-02-26T04:39:09;2.80;;;0.60;;
76892;SDS011;65854;51.466;7.260;2023-02-26T04:41:35;4.78;;;0.63;;
76892;SDS011;65854;51.466;7.260;2023-02-26T04:44:02;4.45;;;0.80;;
76892;SDS011;65854;51.466;7.260;2023-02-26T04:46:28;4.80;;;0.80;;
76892;SDS011;65854;51.466;7.260;2023-02-26T04:48:54;6.70;;;1.02;;
76892;SDS011;65854;51.466;7.260;2023-02-26T04:51:20;5.77;;;1.10;;
76892;SDS011;65854;51.466;7.260;2023-02-26T04:53:46;5.45;;;0.70;;
76892;SDS011;65854;51.466;7.260;2023-02-26T04:56:11;6.03;;;1.00;;
76892;SDS011;65854;51.466;7.260;2023-02-26T04:58:37;3.72;;;0.80;;
76892;SDS011;65854;51.466;7.260;2023-02-26T05:01:03;7.73;;;0.97;;
76892;SDS011;65854;51.466;7.260;2023-02-26T05:03:28;3.97;;;0.90;;
76892;SDS011;65854;51.466;7.260;2023-02-26T05:05:54;2.70;;;0.67;;
76892;SDS011;65854;51.466;7.260;2023-02-26T05:08:20;5.88;;;0.75;;
76892;SDS011;65854;51.466;7.260;2023-02-26T05:10:45;6.10;;;0.80;;
76892;SDS011;65854;51.466;7.260;2023-02-26T05:13:11;2.90;;;0.80;;
76892;SDS011;65854;51.466;7.260;2023-02-26T05:15:36;5.03;;;0.80;;
76892;SDS011;65854;51.466;7.260;2023-02-26T05:18:02;4.10;;;0.67;;
76892;SDS011;65854;51.466;7.260;2023-02-26T05:20:28;4.63;;;0.93;;
76892;SDS011;65854;51.466;7.260;2023-02-26T05:22:53;5.70;;;0.80;;
76892;SDS011;65854;51.466;7.260;2023-02-26T05:25:19;7.23;;;0.77;;
76892;SDS011;65854;51.466;7.260;2023-02-26T05:27:44;4.43;;;0.80;;
76892;SDS011;65854;51.466;7.260;2023-02-26T05:30:13;4.07;;;0.67;;
76892;SDS011;65854;51.466;7.260;2023-02-26T05:32:40;3.88;;;0.82;;
76892;SDS011;65854;51.466;7.260;2023-02-26T05:35:06;5.78;;;0.70;;
76892;SDS011;65854;51.466;7.260;2023-02-26T05:37:32;4.75;;;0.80;;
76892;SDS011;65854;51.466;7.260;2023-02-26T05:39:57;3.63;;;0.80;;
76892;SDS011;65854;51.466;7.260;2023-02-26T05:42:23;6.43;;;0.82;;
76892;SDS011;65854;51.466;7.260;2023-02-26T05:44:51;4.82;;;0.77;;
76892;SDS011;65854;51.466;7.260;2023-02-26T05:47:17;2.80;;;0.75;;
76892;SDS011;65854;51.466;7.260;2023-02-26T05:49:43;6.30;;;0.87;;
76892;SDS011;65854;51.466;7.260;2023-02-26T05:52:08;4.57;;;0.98;;
76892;SDS011;65854;51.466;7.260;2023-02-26T05:54:34;6.50;;;0.90;;
76892;SDS011;65854;51.466;7.260;2023-02-26T05:57:00;4.07;;;0.80;;
76892;SDS011;65854;51.466;7.260;2023-02-26T05:59:25;6.00;;;0.80;;
76892;SDS011;65854;51.466;7.260;2023-02-26T06:01:51;3.60;;;0.70;;
76892;SDS011;65854;51.466;7.260;2023-02-26T06:04:17;4.80;;;0.80;;
76892;SDS011;65854;51.466;7.260;2023-02-26T06:06:42;3.10;;;0.73;;
76892;SDS011;65854;51.466;7.260;2023-02-26T06:09:08;6.03;;;0.80;;
76892;SDS011;65854;51.466;7.260;2023-02-26T06:11:33;2.90;;;0.80;;
76892;SDS011;65854;51.466;7.260;2023-02-26T06:13:59;4.50;;;0.80;;
76892;SDS011;65854;51.466;7.260;2023-02-26T06:16:25;4.03;;;0.90;;
76892;SDS011;65854;51.466;7.260;2023-02-26T06:18:51;5.50;;;0.95;;
76892;SDS011;65854;51.466;7.260;2023-02-26T06:21:17;5.27;;;1.10;;
76892;SDS011;65854;51.466;7.260;2023-02-26T06:23:43;4.80;;;0.90;;
76892;SDS011;65854;51.466;7.260;2023-02-26T06:26:09;4.13;;;0.90;;
76892;SDS011;65854;51.466;7.260;2023-02-26T06:28:34;4.63;;;0.90;;
76892;SDS011;65854;51.466;7.260;2023-02-26T06:31:00;5.43;;;0.75;;
76892;SDS011;65854;51.466;7.260;2023-02-26T06:33:26;6.00;;;0.80;;
76892;SDS011;65854;51.466;7.260;2023-02-26T06:35:51;1.40;;;0.50;;
76892;SDS011;65854;51.466;7.260;2023-02-26T06:38:17;5.30;;;0.70;;
76892;SDS011;65854;51.466;7.260;2023-02-26T06:40:43;4.18;;;0.82;;
76892;SDS011;65854;51.466;7.260;2023-02-26T06:43:08;6.67;;;0.97;;
76892;SDS011;65854;51.466;7.260;2023-02-26T06:45:34;5.72;;;1.00;;
76892;SDS011;65854;51.466;7.260;2023-02-26T06:48:00;5.63;;;1.00;;
76892;SDS011;65854;51.466;7.260;2023-02-26T06:50:26;5.57;;;0.82;;
76892;SDS011;65854;51.466;7.260;2023-02-26T06:52:51;5.23;;;0.80;;
76892;SDS011;65854;51.466;7.260;2023-02-26T06:55:17;4.20;;;0.73;;
76892;SDS011;65854;51.466;7.260;2023-02-26T06:57:42;5.82;;;0.90;;
76892;SDS011;65854;51.466;7.260;2023-02-26T07:00:08;2.63;;;0.67;;
76892;SDS011;65854;51.466;7.260;2023-02-26T07:02:34;6.82;;;0.95;;
76892;SDS011;65854;51.466;7.260;2023-02-26T07:05:00;4.85;;;0.80;;
76892;SDS011;65854;51.466;7.260;2023-02-26T07:07:26;3.40;;;0.77;;
76892;SDS011;65854;51.466;7.260;2023-02-26T07:09:51;5.47;;;0.80;;
76892;SDS011;65854;51.466;7.260;2023-02-26T07:12:17;6.35;;;0.90;;
76892;SDS011;65854;51.466;7.260;2023-02-26T07:14:43;4.70;;;0.80;;
76892;SDS011;65854;51.466;7.260;2023-02-26T07:17:09;4.05;;;0.85;;
76892;SDS011;65854;51.466;7.260;2023-02-26T07:19:44;4.05;;;0.70;;
76892;SDS011;65854;51.466;7.260;2023-02-26T07:22:13;5.03;;;0.95;;
76892;SDS011;65854;51.466;7.260;2023-02-26T07:24:38;6.07;;;0.80;;
76892;SDS011;65854;51.466;7.260;2023-02-26T07:27:04;5.93;;;1.05;;
76892;SDS011;65854;51.466;7.260;2023-02-26T07:29:30;4.05;;;1.00;;
76892;SDS011;65854;51.466;7.260;2023-02-26T07:31:56;10.05;;;1.15;;
76892;SDS011;65854;51.466;7.260;2023-02-26T07:34:21;5.07;;;1.07;;
76892;SDS011;65854;51.466;7.260;2023-02-26T07:36:47;5.03;;;0.80;;
76892;SDS011;65854;51.466;7.260;2023-02-26T07:39:12;2.95;;;0.75;;
76892;SDS011;65854;51.466;7.260;2023-02-26T07:41:38;7.33;;;1.00;;
76892;SDS011;65854;51.466;7.260;2023-02-26T07:44:03;5.50;;;0.90;;
76892;SDS011;65854;51.466;7.260;2023-02-26T07:46:29;6.50;;;1.13;;
76892;SDS011;65854;51.466;7.260;2023-02-26T07:48:55;4.83;;;1.00;;
76892;SDS011;65854;51.466;7.260;2023-02-26T07:51:20;3.05;;;0.90;;
76892;SDS011;65854;51.466;7.260;2023-02-26T07:53:46;5.40;;;1.00;;
76892;SDS011;65854;51.466;7.260;2023-02-26T07:56:11;7.23;;;0.97;;
76892;SDS011;65854;51.466;7.260;2023-02-26T07:58:37;4.05;;;1.00;;
76892;SDS011;65854;51.466;7.260;2023-02-26T08:01:02;7.47;;;1.00;;
76892;SDS011;65854;51.466;7.260;2023-02-26T08:03:28;5.93;;;1.40;;
76892;SDS011;65854;51.466;7.260;2023-02-26T08:05:56;5.18;;;1.20;;
76892;SDS011;65854;51.466;7.260;2023-02-26T08:08:24;5.15;;;1.10;;
76892;SDS011;65854;51.466;7.260;2023-02-26T08:10:50;5.97;;;0.90;;
76892;SDS011;65854;51.466;7.260;2023-02-26T08:13:16;9.67;;;1.83;;
76892;SDS011;65854;51.466;7.260;2023-02-26T08:15:42;6.03;;;1.10;;
76892;SDS011;65854;51.466;7.260;2023-02-26T08:18:08;5.90;;;0.95;;
76892;SDS011;65854;51.466;7.260;2023-02-26T08:20:34;4.28;;;1.20;;
76892;SDS011;65854;51.466;7.260;2023-02-26T08:23:00;6.77;;;1.20;;
76892;SDS011;65854;51.466;7.260;2023-02-26T08:25:26;5.53;;;0.95;;
76892;SDS011;65854;51.466;7.260;2023-02-26T08:27:51;4.20;;;0.70;;
76892;SDS011;65854;51.466;7.260;2023-02-26T08:30:17;3.92;;;1.00;;
76892;SDS011;65854;51.466;7.260;2023-02-26T08:32:43;4.83;;;0.90;;
76892;SDS011;65854;51.466;7.260;2023-02-26T08:35:10;7.03;;;1.30;;
76892;SDS011;65854;51.466;7.260;2023-02-26T08:37:36;4.80;;;1.10;;
76892;SDS011;65854;51.466;7.260;2023-02-26T08:40:03;4.97;;;1.15;;
76892;SDS011;65854;51.466;7.260;2023-02-26T08:42:30;4.00;;;0.90;;
76892;SDS011;65854;51.466;7.260;2023-02-26T08:44:56;4.47;;;0.80;;
76892;SDS011;65854;51.466;7.260;2023-02-26T08:47:21;4.07;;;1.03;;
76892;SDS011;65854;51.466;7.260;2023-02-26T08:49:47;5.63;;;1.00;;
76892;SDS011;65854;51.466;7.260;2023-02-26T08:52:12;3.90;;;0.70;;
76892;SDS011;65854;51.466;7.260;2023-02-26T08:54:38;4.37;;;0.90;;
76892;SDS011;65854;51.466;7.260;2023-02-26T08:57:04;5.13;;;0.80;;
76892;SDS011;65854;51.466;7.260;2023-02-26T08:59:29;3.97;;;0.90;;
76892;SDS011;65854;51.466;7.260;2023-02-26T09:01:55;8.57;;;1.43;;
76892;SDS011;65854;51.466;7.260;2023-02-26T09:04:20;3.72;;;0.88;;
76892;SDS011;65854;51.466;7.260;2023-02-26T09:06:46;5.63;;;0.87;;
76892;SDS011;65854;51.466;7.260;2023-02-26T09:09:11;6.10;;;1.00;;
76892;SDS011;65854;51.466;7.260;2023-02-26T09:11:37;5.18;;;0.70;;
76892;SDS011;65854;51.466;7.260;2023-02-26T09:14:03;4.57;;;1.00;;
76892;SDS011;65854;51.466;7.260;2023-02-26T09:16:29;4.80;;;1.05;;
76892;SDS011;65854;51.466;7.260;2023-02-26T09:18:55;6.40;;;1.30;;
76892;SDS011;65854;51.466;7.260;2023-02-26T09:21:21;5.63;;;1.00;;
76892;SDS011;65854;51.466;7.260;2023-02-26T09:23:47;4.23;;;0.97;;
76892;SDS011;65854;51.466;7.260;2023-02-26T09:26:13;4.90;;;0.80;;
76892;SDS011;65854;51.466;7.260;2023-02-26T09:28:39;3.58;;;0.80;;
76892;SDS011;65854;51.466;7.260;2023-02-26T09:31:05;3.03;;;0.60;;
76892;SDS011;65854;51.466;7.260;2023-02-26T09:33:33;4.45;;;1.05;;
76892;SDS011;65854;51.466;7.260;2023-02-26T09:36:00;5.70;;;1.00;;
76892;SDS011;65854;51.466;7.260;2023-02-26T09:38:26;4.13;;;0.70;;
76892;SDS011;65854;51.466;7.260;2023-02-26T09:40:59;4.90;;;0.70;;
76892;SDS011;65854;51.466;7.260;2023-02-26T09:52:03;5.53;;;0.80;;
76892;SDS011;65854;51.466;7.260;2023-02-26T09:54:51;2.95;;;0.60;;
76892;SDS011;65854;51.466;7.260;2023-02-26T09:57:26;4.38;;;0.70;;
76892;SDS011;65854;51.466;7.260;2023-02-26T09:59:58;3.00;;;0.65;;
76892;SDS011;65854;51.466;7.260;2023-02-26T10:05:17;3.50;;;0.50;;
76892;SDS011;65854;51.466;7.260;2023-02-26T10:07:54;2.90;;;0.50;;
76892;SDS011;65854;51.466;7.260;2023-02-26T10:16:11;2.40;;;0.60;;
76892;SDS011;65854;51.466;7.260;2023-02-26T10:18:54;3.60;;;0.60;;
76892;SDS011;65854;51.466;7.260;2023-02-26T10:24:32;3.05;;;0.63;;
76892;SDS011;65854;51.466;7.260;2023-02-26T10:27:12;2.95;;;0.50;;
76892;SDS011;65854;51.466;7.260;2023-02-26T10:29:59;3.13;;;0.70;;
76892;SDS011;65854;51.466;7.260;2023-02-26T10:32:32;3.00;;;0.50;;
76892;SDS011;65854;51.466;7.260;2023-02-26T10:35:03;3.33;;;0.70;;
76892;SDS011;65854;51.466;7.260;2023-02-26T10:40:18;3.88;;;0.52;;
76892;SDS011;65854;51.466;7.260;2023-02-26T10:43:00;6.05;;;0.60;;
76892;SDS011;65854;51.466;7.260;2023-02-26T10:48:21;2.25;;;0.50;;
76892;SDS011;65854;51.466;7.260;2023-02-26T10:51:00;4.47;;;0.50;;
76892;SDS011;65854;51.466;7.260;2023-02-26T10:53:36;4.45;;;0.60;;
76892;SDS011;65854;51.466;7.260;2023-02-26T10:56:06;3.73;;;0.50;;
76892;SDS011;65854;51.466;7.260;2023-02-26T10:58:40;3.05;;;0.50;;
76892;SDS011;65854;51.466;7.260;2023-02-26T11:01:06;2.35;;;0.47;;
76892;SDS011;65854;51.466;7.260;2023-02-26T11:03:41;4.10;;;0.53;;
76892;SDS011;65854;51.466;7.260;2023-02-26T11:06:09;1.70;;;0.35;;
76892;SDS011;65854;51.466;7.260;2023-02-26T11:08:44;3.10;;;0.50;;
76892;SDS011;65854;51.466;7.260;2023-02-26T11:11:33;3.22;;;0.57;;
76892;SDS011;65854;51.466;7.260;2023-02-26T11:14:01;3.58;;;0.50;;
76892;SDS011;65854;51.466;7.260;2023-02-26T11:16:26;2.40;;;0.50;;
76892;SDS011;65854;51.466;7.260;2023-02-26T11:18:53;2.67;;;0.50;;
76892;SDS011;65854;51.466;7.260;2023-02-26T11:21:26;3.33;;;0.60;;
76892;SDS011;65854;51.466;7.260;2023-02-26T11:24:00;3.83;;;0.60;;
76892;SDS011;65854;51.466;7.260;2023-02-26T11:26:36;1.92;;;0.52;;
76892;SDS011;65854;51.466;7.260;2023-02-26T11:29:03;3.35;;;0.80;;
76892;SDS011;65854;51.466;7.260;2023-02-26T11:31:29;3.45;;;0.60;;
76892;SDS011;65854;51.466;7.260;2023-02-26T11:34:03;3.17;;;0.97;;
76892;SDS011;65854;51.466;7.260;2023-02-26T11:36:32;4.95;;;0.90;;
76892;SDS011;65854;51.466;7.260;2023-02-26T11:39:02;3.80;;;0.57;;
76892;SDS011;65854;51.466;7.260;2023-02-26T11:41:38;3.25;;;0.73;;
76892;SDS011;65854;51.466;7.260;2023-02-26T11:44:10;3.80;;;0.70;;
76892;SDS011;65854;51.466;7.260;2023-02-26T11:46:49;2.35;;;0.60;;
76892;SDS011;65854;51.466;7.260;2023-02-26T11:49:17;2.80;;;0.60;;
76892;SDS011;65854;51.466;7.260;2023-02-26T11:51:49;3.63;;;0.50;;
76892;SDS011;65854;51.466;7.260;2023-02-26T11:54:43;3.45;;;0.60;;
76892;SDS011;65854;51.466;7.260;2023-02-26T11:57:23;4.85;;;0.85;;
76892;SDS011;65854;51.466;7.260;2023-02-26T11:59:51;3.17;;;0.60;;
76892;SDS011;65854;51.466;7.260;2023-02-26T12:02:19;2.38;;;0.60;;
76892;SDS011;65854;51.466;7.260;2023-02-26T12:04:48;4.97;;;0.75;;
76892;SDS011;65854;51.466;7.260;2023-02-26T12:07:16;2.58;;;0.65;;
76892;SDS011;65854;51.466;7.260;2023-02-26T12:09:43;3.38;;;0.60;;
76892;SDS011;65854;51.466;7.260;2023-02-26T12:12:22;3.60;;;0.63;;
76892;SDS011;65854;51.466;7.260;2023-02-26T12:15:07;2.58;;;0.50;;
76892;SDS011;65854;51.466;7.260;2023-02-26T12:17:40;4.85;;;0.63;;
76892;SDS011;65854;51.466;7.260;2023-02-26T12:28:36;3.75;;;0.68;;
76892;SDS011;65854;51.466;7.260;2023-02-26T12:39:43;2.87;;;0.57;;
76892;SDS011;65854;51.466;7.260;2023-02-26T12:54:05;2.65;;;0.40;;
76892;SDS011;65854;51.466;7.260;2023-02-26T12:59:42;3.10;;;0.70;;
76892;SDS011;65854;51.466;7.260;2023-02-26T13:16:29;1.67;;;0.40;;
76892;SDS011;65854;51.466;7.260;2023-02-26T13:19:14;5.05;;;0.60;;
76892;SDS011;65854;51.466;7.260;2023-02-26T13:21:50;2.73;;;0.50;;
76892;SDS011;65854;51.466;7.260;2023-02-26T13:27:00;2.47;;;0.50;;
76892;SDS011;65854;51.466;7.260;2023-02-26T13:29:31;3.72;;;0.57;;
76892;SDS011;65854;51.466;7.260;2023-02-26T13:32:15;3.30;;;0.50;;
76892;SDS011;65854;51.466;7.260;2023-02-26T13:34:56;4.87;;;0.67;;
76892;SDS011;65854;51.466;7.260;2023-02-26T13:42:52;2.25;;;0.60;;
76892;SDS011;65854;51.466;7.260;2023-02-26T13:53:52;2.47;;;0.50;;
76892;SDS011;65854;51.466;7.260;2023-02-26T13:57:06;3.28;;;0.60;;
76892;SDS011;65854;51.466;7.260;2023-02-26T14:06:50;3.72;;;0.60;;
76892;SDS011;65854;51.466;7.260;2023-02-26T14:11:56;1.90;;;0.60;;
76892;SDS011;65854;51.466;7.260;2023-02-26T14:14:24;2.20;;;0.55;;
76892;SDS011;65854;51.466;7.260;2023-02-26T14:24:59;4.53;;;0.73;;
76892;SDS011;65854;51.466;7.260;2023-02-26T14:27:39;2.67;;;0.50;;
76892;SDS011;65854;51.466;7.260;2023-02-26T14:32:55;3.07;;;0.70;;
76892;SDS011;65854;51.466;7.260;2023-02-26T14:35:31;2.85;;;0.60;;
76892;SDS011;65854;51.466;7.260;2023-02-26T14:38:05;3.97;;;0.70;;
76892;SDS011;65854;51.466;7.260;2023-02-26T14:40:54;5.68;;;0.80;;
76892;SDS011;65854;51.466;7.260;2023-02-26T14:43:33;4.13;;;0.90;;
76892;SDS011;65854;51.466;7.260;2023-02-26T14:46:05;4.47;;;0.80;;
76892;SDS011;65854;51.466;7.260;2023-02-26T14:48:32;2.78;;;0.80;;
76892;SDS011;65854;51.466;7.260;2023-02-26T15:02:31;3.45;;;1.20;;
76892;SDS011;65854;51.466;7.260;2023-02-26T15:05:25;3.22;;;0.80;;
76892;SDS011;65854;51.466;7.260;2023-02-26T15:08:05;4.07;;;0.88;;
76892;SDS011;65854;51.466;7.260;2023-02-26T15:16:13;3.78;;;1.00;;
76892;SDS011;65854;51.466;7.260;2023-02-26T15:18:55;4.93;;;0.90;;
76892;SDS011;65854;51.466;7.260;2023-02-26T15:21:46;3.15;;;0.88;;
76892;SDS011;65854;51.466;7.260;2023-02-26T15:24:17;4.15;;;0.80;;
76892;SDS011;65854;51.466;7.260;2023-02-26T15:26:48;4.03;;;0.98;;
76892;SDS011;65854;51.466;7.260;2023-02-26T15:29:20;2.90;;;0.77;;
76892;SDS011;65854;51.466;7.260;2023-02-26T15:31:52;3.65;;;1.02;;
76892;SDS011;65854;51.466;7.260;2023-02-26T15:34:21;4.20;;;1.10;;
76892;SDS011;65854;51.466;7.260;2023-02-26T15:36:48;4.53;;;0.90;;
76892;SDS011;65854;51.466;7.260;2023-02-26T15:39:15;2.42;;;0.90;;
76892;SDS011;65854;51.466;7.260;2023-02-26T15:41:42;3.08;;;0.90;;
76892;SDS011;65854;51.466;7.260;2023-02-26T15:44:15;4.05;;;1.10;;
76892;SDS011;65854;51.466;7.260;2023-02-26T15:46:45;6.27;;;1.10;;
76892;SDS011;65854;51.466;7.260;2023-02-26T15:49:20;3.03;;;1.02;;
76892;SDS011;65854;51.466;7.260;2023-02-26T15:51:50;3.10;;;1.05;;
76892;SDS011;65854;51.466;7.260;2023-02-26T15:54:18;3.35;;;1.00;;
76892;SDS011;65854;51.466;7.260;2023-02-26T15:56:47;3.95;;;1.10;;
76892;SDS011;65854;51.466;7.260;2023-02-26T15:59:15;5.23;;;1.13;;
76892;SDS011;65854;51.466;7.260;2023-02-26T16:01:46;3.38;;;1.08;;
76892;SDS011;65854;51.466;7.260;2023-02-26T16:04:14;3.55;;;1.02;;
76892;SDS011;65854;51.466;7.260;2023-02-26T16:06:47;4.38;;;1.15;;
76892;SDS011;65854;51.466;7.260;2023-02-26T16:09:24;4.95;;;1.40;;
76892;SDS011;65854;51.466;7.260;2023-02-26T16:11:53;4.05;;;1.00;;
76892;SDS011;65854;51.466;7.260;2023-02-26T16:14:23;3.50;;;0.95;;
76892;SDS011;65854;51.466;7.260;2023-02-26T16:16:53;4.15;;;1.05;;
76892;SDS011;65854;51.466;7.260;2023-02-26T16:19:23;4.13;;;1.30;;
76892;SDS011;65854;51.466;7.260;2023-02-26T16:21:57;3.97;;;1.30;;
76892;SDS011;65854;51.466;7.260;2023-02-26T16:24:25;4.60;;;1.30;;
76892;SDS011;65854;51.466;7.260;2023-02-26T16:26:54;4.32;;;1.40;;
76892;SDS011;65854;51.466;7.260;2023-02-26T16:29:25;4.28;;;1.10;;
76892;SDS011;65854;51.466;7.260;2023-02-26T16:31:54;5.70;;;1.40;;
76892;SDS011;65854;51.466;7.260;2023-02-26T16:34:23;6.10;;;1.20;;
76892;SDS011;65854;51.466;7.260;2023-02-26T16:36:57;5.40;;;1.43;;
76892;SDS011;65854;51.466;7.260;2023-02-26T16:39:33;4.55;;;1.15;;
76892;SDS011;65854;51.466;7.260;2023-02-26T16:42:07;4.05;;;1.10;;
76892;SDS011;65854;51.466;7.260;2023-02-26T16:47:42;5.25;;;1.38;;
76892;SDS011;65854;51.466;7.260;2023-02-26T16:50:20;4.55;;;1.50;;
76892;SDS011;65854;51.466;7.260;2023-02-26T16:52:56;3.97;;;1.10;;
76892;SDS011;65854;51.466;7.260;2023-02-26T16:55:24;4.32;;;1.00;;
76892;SDS011;65854;51.466;7.260;2023-02-26T16:57:51;6.30;;;1.00;;
76892;SDS011;65854;51.466;7.260;2023-02-26T17:02:54;6.20;;;1.40;;
76892;SDS011;65854;51.466;7.260;2023-02-26T17:05:25;5.25;;;1.17;;
76892;SDS011;65854;51.466;7.260;2023-02-26T17:10:38;5.00;;;1.03;;
76892;SDS011;65854;51.466;7.260;2023-02-26T17:13:27;4.07;;;1.02;;
76892;SDS011;65854;51.466;7.260;2023-02-26T17:16:00;5.30;;;1.15;;
76892;SDS011;65854;51.466;7.260;2023-02-26T17:18:28;4.43;;;1.10;;
76892;SDS011;65854;51.466;7.260;2023-02-26T17:20:54;3.75;;;1.10;;
76892;SDS011;65854;51.466;7.260;2023-02-26T17:23:22;3.90;;;0.90;;
76892;SDS011;65854;51.466;7.260;2023-02-26T17:25:54;4.03;;;1.20;;
76892;SDS011;65854;51.466;7.260;2023-02-26T17:28:24;5.25;;;1.10;;
76892;SDS011;65854;51.466;7.260;2023-02-26T17:30:52;4.32;;;1.00;;
76892;SDS011;65854;51.466;7.260;2023-02-26T17:33:19;4.85;;;0.90;;
76892;SDS011;65854;51.466;7.260;2023-02-26T17:35:45;4.87;;;1.40;;
76892;SDS011;65854;51.466;7.260;2023-02-26T17:38:12;4.75;;;1.10;;
76892;SDS011;65854;51.466;7.260;2023-02-26T17:40:40;3.97;;;1.02;;
76892;SDS011;65854;51.466;7.260;2023-02-26T17:43:07;4.53;;;1.00;;
76892;SDS011;65854;51.466;7.260;2023-02-26T17:45:34;5.57;;;1.10;;
76892;SDS011;65854;51.466;7.260;2023-02-26T17:48:01;6.33;;;1.17;;
76892;SDS011;65854;51.466;7.260;2023-02-26T17:50:41;5.78;;;1.23;;
76892;SDS011;65854;51.466;7.260;2023-02-26T17:53:07;3.88;;;1.40;;
76892;SDS011;65854;51.466;7.260;2023-02-26T17:55:33;4.35;;;1.10;;
76892;SDS011;65854;51.466;7.260;2023-02-26T17:58:03;5.90;;;1.10;;
76892;SDS011;65854;51.466;7.260;2023-02-26T18:00:41;6.40;;;1.35;;
76892;SDS011;65854;51.466;7.260;2023-02-26T18:03:11;4.45;;;1.13;;
76892;SDS011;65854;51.466;7.260;2023-02-26T18:05:36;6.85;;;1.38;;
76892;SDS011;65854;51.466;7.260;2023-02-26T18:08:10;3.80;;;1.10;;
76892;SDS011;65854;51.466;7.260;2023-02-26T18:10:46;4.43;;;1.10;;
76892;SDS011;65854;51.466;7.260;2023-02-26T18:13:12;4.20;;;1.10;;